Time;durP1;ratioP1;P1;durP2;ratioP2;P2;SDS_P1;SDS_P2;PMS_P1;PMS_P2;Temp;Humidity;BMP_temperature;BMP_pressure;BME280_temperature;BME280_humidity;BME280_pressure;Samples;Min_cycle;Max_cycle;Signal;HPM_P1;HPM_P2
2023/01/08 00:01:55;;;;;;;14.82;4.47;;;;;;;;;;5153451;27;20415;-67
2023/01/08 00:04:21;;;;;;;13.80;5.00;;;;;;;;;;5153232;27;20025;-66
2023/01/08 00:06:46;;;;;;;15.93;4.55;;;;;;;;;;5153507;27;20051;-68
2023/01/08 00:09:12;;;;;;;17.40;5.03;;;;;;;;;;5153465;27;20027;-67
2023/01/08 00:11:37;;;;;;;15.50;4.55;;;;;;;;;;5153144;27;20531;-68
2023/01/08 00:14:03;;;;;;;16.73;4.72;;;;;;;;;;5152941;27;20030;-67
2023/01/08 00:16:30;;;;;;;13.63;4.00;;;;;;;;;;5152781;27;20069;-68
2023/01/08 00:18:55;;;;;;;20.08;4.10;;;;;;;;;;5152941;27;20072;-67
2023/01/08 00:21:21;;;;;;;15.82;4.13;;;;;;;;;;5152923;27;20073;-67
2023/01/08 00:23:47;;;;;;;15.57;4.13;;;;;;;;;;5152818;27;20033;-68
2023/01/08 00:26:13;;;;;;;13.52;3.90;;;;;;;;;;5153170;27;20076;-70
2023/01/08 00:28:39;;;;;;;15.65;4.00;;;;;;;;;;5153000;27;20056;-67
2023/01/08 00:31:11;;;;;;;13.40;4.43;;;;;;;;;;5152973;27;20030;-74
2023/01/08 00:33:37;;;;;;;18.45;4.10;;;;;;;;;;5152308;27;20033;-67
2023/01/08 00:36:11;;;;;;;19.38;4.50;;;;;;;;;;5152643;27;20023;-67
2023/01/08 00:38:36;;;;;;;14.65;3.80;;;;;;;;;;5152735;27;20427;-68
2023/01/08 00:41:03;;;;;;;10.63;3.78;;;;;;;;;;5152736;27;20022;-67
2023/01/08 00:43:28;;;;;;;14.65;4.68;;;;;;;;;;5152413;27;20018;-68
2023/01/08 00:45:54;;;;;;;14.57;4.75;;;;;;;;;;5152562;27;20088;-68
2023/01/08 00:48:23;;;;;;;15.15;4.38;;;;;;;;;;5152467;27;20105;-68
2023/01/08 00:50:50;;;;;;;13.27;4.20;;;;;;;;;;5152549;27;20027;-67
2023/01/08 00:53:16;;;;;;;13.32;4.22;;;;;;;;;;5152257;27;20490;-67
2023/01/08 00:55:41;;;;;;;12.68;4.22;;;;;;;;;;5152384;27;20498;-67
2023/01/08 00:58:07;;;;;;;18.02;4.35;;;;;;;;;;5152069;27;20037;-66
2023/01/08 01:00:32;;;;;;;17.55;4.57;;;;;;;;;;5152405;27;20106;-68
2023/01/08 01:02:57;;;;;;;14.70;4.65;;;;;;;;;;5152192;27;20031;-67
2023/01/08 01:05:23;;;;;;;16.98;4.25;;;;;;;;;;5152248;27;20021;-70
2023/01/08 01:07:48;;;;;;;15.48;4.20;;;;;;;;;;5152463;27;20022;-67
2023/01/08 01:10:15;;;;;;;16.73;3.72;;;;;;;;;;5152235;27;20026;-67
2023/01/08 01:12:41;;;;;;;12.82;4.07;;;;;;;;;;5151908;27;20374;-67
2023/01/08 01:15:08;;;;;;;10.60;3.70;;;;;;;;;;5151862;27;20034;-68
2023/01/08 01:17:37;;;;;;;13.50;3.92;;;;;;;;;;5151981;27;20027;-67
2023/01/08 01:20:03;;;;;;;14.75;4.00;;;;;;;;;;5152063;27;20660;-67
2023/01/08 01:22:28;;;;;;;12.23;3.83;;;;;;;;;;5151842;27;20031;-67
2023/01/08 01:24:53;;;;;;;16.08;4.05;;;;;;;;;;5152088;27;20023;-67
2023/01/08 01:27:19;;;;;;;13.85;4.00;;;;;;;;;;5152123;27;20037;-67
2023/01/08 01:29:44;;;;;;;12.63;3.45;;;;;;;;;;5152060;27;20031;-66
2023/01/08 01:32:10;;;;;;;13.60;3.30;;;;;;;;;;5152041;27;20023;-66
2023/01/08 01:34:35;;;;;;;12.80;3.63;;;;;;;;;;5151452;27;20031;-68
2023/01/08 01:37:01;;;;;;;13.75;3.72;;;;;;;;;;5150462;27;20031;-68
2023/01/08 01:39:26;;;;;;;14.00;3.67;;;;;;;;;;5151869;27;20034;-67
2023/01/08 01:41:52;;;;;;;11.98;3.78;;;;;;;;;;5152023;27;20023;-67
2023/01/08 01:44:38;;;;;;;14.40;3.90;;;;;;;;;;5150139;27;20528;-67
2023/01/08 01:47:33;;;;;;;12.82;3.42;;;;;;;;;;5152110;27;20057;-67
2023/01/08 01:50:10;;;;;;;12.45;3.92;;;;;;;;;;5151212;27;20042;-67
2023/01/08 01:52:40;;;;;;;10.30;3.30;;;;;;;;;;5151855;27;20035;-68
2023/01/08 01:55:08;;;;;;;14.52;4.32;;;;;;;;;;5151437;27;20034;-67
2023/01/08 01:57:36;;;;;;;13.05;3.70;;;;;;;;;;5151762;27;20027;-67
2023/01/08 02:00:06;;;;;;;15.10;3.42;;;;;;;;;;5152242;27;20038;-67
2023/01/08 02:02:32;;;;;;;19.02;3.67;;;;;;;;;;5155905;27;20027;-68
2023/01/08 02:05:00;;;;;;;16.85;3.65;;;;;;;;;;5155655;27;20030;-68
2023/01/08 02:08:00;;;;;;;9.63;3.20;;;;;;;;;;5156530;27;20033;-68
2023/01/08 02:10:54;;;;;;;12.98;3.85;;;;;;;;;;5155524;27;20434;-69
2023/01/08 02:13:26;;;;;;;18.08;3.80;;;;;;;;;;5155258;27;20030;-66
2023/01/08 02:15:59;;;;;;;12.77;3.72;;;;;;;;;;5155549;27;20015;-66
2023/01/08 02:18:44;;;;;;;13.05;3.47;;;;;;;;;;5155208;27;20038;-66
2023/01/08 02:21:17;;;;;;;13.07;3.85;;;;;;;;;;5155622;27;20092;-66
2023/01/08 02:23:57;;;;;;;19.88;3.75;;;;;;;;;;5155069;27;20035;-67
2023/01/08 02:26:28;;;;;;;11.85;3.67;;;;;;;;;;5155392;27;20030;-66
2023/01/08 02:29:03;;;;;;;12.10;4.20;;;;;;;;;;5154008;27;20670;-66
2023/01/08 02:31:30;;;;;;;13.90;4.40;;;;;;;;;;5155165;27;20067;-67
2023/01/08 02:33:56;;;;;;;12.82;4.45;;;;;;;;;;5154600;27;20026;-67
2023/01/08 02:36:28;;;;;;;15.35;4.53;;;;;;;;;;5154912;27;20030;-67
2023/01/08 02:39:08;;;;;;;14.02;4.30;;;;;;;;;;5155032;27;20021;-67
2023/01/08 02:41:58;;;;;;;11.48;4.07;;;;;;;;;;5155230;27;20051;-67
2023/01/08 02:44:32;;;;;;;16.77;4.28;;;;;;;;;;5154437;27;20046;-67
2023/01/08 02:46:59;;;;;;;11.27;4.15;;;;;;;;;;5155032;27;20052;-66
2023/01/08 02:49:31;;;;;;;17.10;4.60;;;;;;;;;;5154862;27;20095;-69
2023/01/08 02:52:01;;;;;;;16.92;4.82;;;;;;;;;;5154808;27;20030;-67
2023/01/08 02:54:30;;;;;;;16.70;4.60;;;;;;;;;;5154395;27;20514;-67
2023/01/08 02:57:26;;;;;;;13.23;4.30;;;;;;;;;;5154458;27;20031;-68
2023/01/08 02:59:52;;;;;;;16.23;4.75;;;;;;;;;;5141423;27;20074;-75
2023/01/08 03:02:17;;;;;;;15.35;4.70;;;;;;;;;;5154700;27;20421;-68
2023/01/08 03:04:56;;;;;;;11.75;4.20;;;;;;;;;;5154561;27;20036;-67
2023/01/08 03:07:22;;;;;;;16.02;4.50;;;;;;;;;;5154678;27;20074;-67
2023/01/08 03:09:48;;;;;;;15.25;4.32;;;;;;;;;;5154482;27;20035;-67
2023/01/08 03:12:31;;;;;;;13.68;4.38;;;;;;;;;;5153029;27;20015;-67
2023/01/08 03:15:00;;;;;;;11.60;3.65;;;;;;;;;;5152906;27;20031;-68
2023/01/08 03:17:32;;;;;;;9.88;3.85;;;;;;;;;;5154470;27;20034;-68
2023/01/08 03:20:07;;;;;;;11.73;4.00;;;;;;;;;;5164438;27;20530;-67
2023/01/08 03:22:38;;;;;;;14.30;4.28;;;;;;;;;;5173408;27;20019;-67
2023/01/08 03:25:05;;;;;;;15.98;4.45;;;;;;;;;;5164023;27;20037;-68
2023/01/08 03:27:36;;;;;;;17.17;4.65;;;;;;;;;;5154607;27;20055;-67
2023/01/08 03:30:04;;;;;;;15.30;4.53;;;;;;;;;;5154686;27;20095;-67
2023/01/08 03:32:31;;;;;;;12.38;4.78;;;;;;;;;;5154147;27;20025;-68
2023/01/08 03:34:58;;;;;;;14.70;5.13;;;;;;;;;;5153717;27;20101;-67
2023/01/08 03:37:32;;;;;;;13.60;5.22;;;;;;;;;;5152433;27;20240;-68
2023/01/08 03:40:03;;;;;;;13.70;5.47;;;;;;;;;;5154152;27;20030;-68
2023/01/08 03:42:30;;;;;;;15.00;5.60;;;;;;;;;;5154031;27;20016;-70
2023/01/08 03:44:56;;;;;;;14.00;5.38;;;;;;;;;;5153508;27;20042;-68
2023/01/08 03:47:23;;;;;;;18.48;5.70;;;;;;;;;;5153768;27;20442;-67
2023/01/08 03:49:51;;;;;;;17.10;5.45;;;;;;;;;;5153421;27;20497;-67
2023/01/08 03:52:22;;;;;;;21.83;6.35;;;;;;;;;;5153369;27;20027;-67
2023/01/08 03:54:48;;;;;;;18.58;5.95;;;;;;;;;;5153178;27;20019;-68
2023/01/08 03:57:13;;;;;;;12.55;5.60;;;;;;;;;;5153374;27;20485;-67
2023/01/08 03:59:38;;;;;;;14.30;5.65;;;;;;;;;;5153433;27;20027;-67
2023/01/08 04:02:04;;;;;;;11.90;5.75;;;;;;;;;;5153652;27;20034;-67
2023/01/08 04:04:29;;;;;;;16.67;6.45;;;;;;;;;;5153038;27;20462;-67
2023/01/08 04:06:54;;;;;;;15.85;5.82;;;;;;;;;;5153106;27;20023;-69
2023/01/08 04:09:20;;;;;;;17.33;6.00;;;;;;;;;;5153256;27;20015;-67
2023/01/08 04:11:45;;;;;;;17.02;6.20;;;;;;;;;;5152981;27;20086;-67
2023/01/08 04:14:11;;;;;;;17.60;6.20;;;;;;;;;;5152822;27;20083;-67
2023/01/08 04:16:36;;;;;;;15.55;6.18;;;;;;;;;;5153114;27;20037;-68
2023/01/08 04:19:02;;;;;;;14.70;6.22;;;;;;;;;;5152990;27;20103;-66
2023/01/08 04:21:27;;;;;;;13.20;6.22;;;;;;;;;;5153110;27;20023;-66
2023/01/08 04:23:53;;;;;;;11.85;5.97;;;;;;;;;;5152439;27;20474;-67
2023/01/08 04:26:19;;;;;;;12.18;6.05;;;;;;;;;;5151567;27;20050;-67
2023/01/08 04:28:44;;;;;;;19.38;6.40;;;;;;;;;;5152798;27;20467;-66
2023/01/08 04:31:09;;;;;;;12.80;6.00;;;;;;;;;;5152696;27;20022;-67
2023/01/08 04:33:36;;;;;;;16.85;5.85;;;;;;;;;;5152596;27;20019;-70
2023/01/08 04:36:02;;;;;;;15.93;6.65;;;;;;;;;;5152564;27;20133;-68
2023/01/08 04:38:27;;;;;;;18.90;6.20;;;;;;;;;;5152721;27;20027;-68
2023/01/08 04:41:00;;;;;;;13.35;6.65;;;;;;;;;;5152800;27;20374;-67
2023/01/08 04:43:27;;;;;;;17.45;6.13;;;;;;;;;;5152692;27;20018;-68
2023/01/08 04:45:59;;;;;;;15.70;6.72;;;;;;;;;;5152321;27;20046;-67
2023/01/08 04:48:25;;;;;;;15.23;6.32;;;;;;;;;;5152420;27;20106;-67
2023/01/08 04:50:51;;;;;;;17.60;6.70;;;;;;;;;;5152302;27;20027;-67
2023/01/08 04:53:16;;;;;;;13.80;6.57;;;;;;;;;;5152497;27;20379;-67
2023/01/08 04:55:42;;;;;;;15.20;6.80;;;;;;;;;;5152103;27;20500;-67
2023/01/08 04:58:07;;;;;;;13.60;6.75;;;;;;;;;;5155674;27;20079;-67
2023/01/08 05:00:33;;;;;;;18.10;7.07;;;;;;;;;;5152670;27;20037;-67
2023/01/08 05:02:59;;;;;;;16.63;6.38;;;;;;;;;;5152732;27;20022;-66
2023/01/08 05:05:24;;;;;;;15.30;6.68;;;;;;;;;;5152196;27;20021;-67
2023/01/08 05:07:49;;;;;;;12.93;6.82;;;;;;;;;;5152163;27;20022;-66
2023/01/08 05:10:15;;;;;;;14.13;6.50;;;;;;;;;;5152128;27;20058;-67
2023/01/08 05:12:40;;;;;;;12.60;6.53;;;;;;;;;;5152232;27;20066;-67
2023/01/08 05:15:09;;;;;;;16.13;6.38;;;;;;;;;;5151952;27;20383;-67
2023/01/08 05:17:34;;;;;;;14.60;6.50;;;;;;;;;;5152192;27;20117;-67
2023/01/08 05:20:00;;;;;;;15.15;6.68;;;;;;;;;;5152242;27;20101;-68
2023/01/08 05:22:25;;;;;;;16.05;6.53;;;;;;;;;;5152233;27;20427;-67
2023/01/08 05:24:50;;;;;;;18.40;6.22;;;;;;;;;;5151660;27;20023;-68
2023/01/08 05:27:16;;;;;;;15.80;6.00;;;;;;;;;;5152124;27;20046;-67
2023/01/08 05:29:41;;;;;;;12.38;6.00;;;;;;;;;;5152030;27;20171;-67
2023/01/08 05:32:16;;;;;;;11.13;5.70;;;;;;;;;;5151972;27;20034;-67
2023/01/08 05:34:41;;;;;;;17.42;6.90;;;;;;;;;;5151738;27;20035;-67
2023/01/08 05:37:06;;;;;;;16.50;6.68;;;;;;;;;;5156027;27;20026;-69
2023/01/08 05:39:32;;;;;;;12.73;6.03;;;;;;;;;;5156342;27;20015;-68
2023/01/08 05:41:57;;;;;;;14.73;6.22;;;;;;;;;;5156378;27;20019;-68
2023/01/08 05:44:22;;;;;;;12.80;5.20;;;;;;;;;;5155886;27;20070;-67
2023/01/08 05:46:48;;;;;;;16.13;5.88;;;;;;;;;;5155979;27;20027;-68
2023/01/08 05:49:13;;;;;;;12.70;5.45;;;;;;;;;;5155765;27;20027;-68
2023/01/08 05:51:39;;;;;;;12.30;4.93;;;;;;;;;;5155806;27;20027;-68
2023/01/08 05:54:04;;;;;;;11.88;4.65;;;;;;;;;;5155750;27;20027;-68
2023/01/08 05:56:30;;;;;;;11.30;4.85;;;;;;;;;;5155561;27;20501;-68
2023/01/08 05:58:55;;;;;;;15.35;5.07;;;;;;;;;;5155863;27;20225;-68
2023/01/08 06:01:21;;;;;;;11.35;4.95;;;;;;;;;;5155754;27;20023;-68
2023/01/08 06:03:46;;;;;;;10.00;4.60;;;;;;;;;;5155753;27;20067;-68
2023/01/08 06:06:12;;;;;;;10.32;4.72;;;;;;;;;;5155285;27;20023;-68
2023/01/08 06:08:38;;;;;;;12.80;4.78;;;;;;;;;;5155527;27;20050;-67
2023/01/08 06:11:07;;;;;;;12.23;4.93;;;;;;;;;;5155551;27;20034;-67
2023/01/08 06:13:36;;;;;;;15.90;4.53;;;;;;;;;;5155409;27;20019;-68
2023/01/08 06:16:02;;;;;;;9.98;4.78;;;;;;;;;;5155342;27;20094;-67
2023/01/08 06:18:28;;;;;;;13.32;4.90;;;;;;;;;;5155301;27;20106;-68
2023/01/08 06:20:54;;;;;;;14.02;4.82;;;;;;;;;;5155409;27;20097;-68
2023/01/08 06:23:19;;;;;;;12.95;4.68;;;;;;;;;;5155304;27;20083;-67
2023/01/08 06:25:52;;;;;;;11.80;5.43;;;;;;;;;;5154978;27;20019;-65
2023/01/08 06:28:17;;;;;;;9.75;4.43;;;;;;;;;;5155351;27;20497;-67
2023/01/08 06:30:43;;;;;;;18.63;5.43;;;;;;;;;;5155023;27;20019;-67
2023/01/08 06:33:08;;;;;;;11.95;4.70;;;;;;;;;;5155056;27;20072;-67
2023/01/08 06:35:33;;;;;;;13.70;5.20;;;;;;;;;;5153547;27;20034;-67
2023/01/08 06:37:59;;;;;;;12.23;4.72;;;;;;;;;;5155069;27;20034;-67
2023/01/08 06:40:24;;;;;;;14.40;5.00;;;;;;;;;;5155044;27;20448;-68
2023/01/08 06:42:50;;;;;;;11.30;4.47;;;;;;;;;;5155049;27;20026;-68
2023/01/08 06:45:15;;;;;;;11.93;4.68;;;;;;;;;;5154505;27;20045;-68
2023/01/08 06:47:41;;;;;;;13.10;4.57;;;;;;;;;;5154583;27;20424;-68
2023/01/08 06:50:07;;;;;;;14.13;4.72;;;;;;;;;;5154492;27;20041;-68
2023/01/08 06:52:32;;;;;;;16.17;5.28;;;;;;;;;;5154696;27;20110;-68
2023/01/08 06:54:58;;;;;;;13.27;5.18;;;;;;;;;;5154586;27;20029;-68
2023/01/08 06:57:23;;;;;;;13.65;5.07;;;;;;;;;;5154799;27;20667;-67
2023/01/08 06:59:48;;;;;;;15.35;4.95;;;;;;;;;;5155023;27;20079;-67
2023/01/08 07:02:15;;;;;;;14.50;5.00;;;;;;;;;;5154698;27;20040;-68
2023/01/08 07:04:40;;;;;;;10.98;4.75;;;;;;;;;;5154434;27;20031;-70
2023/01/08 07:07:06;;;;;;;14.10;4.78;;;;;;;;;;5154539;27;20030;-68
2023/01/08 07:09:34;;;;;;;12.45;4.70;;;;;;;;;;5154564;27;20027;-68
2023/01/08 07:12:00;;;;;;;16.05;5.30;;;;;;;;;;5154733;27;20037;-68
2023/01/08 07:14:25;;;;;;;11.02;4.90;;;;;;;;;;5162350;27;20014;-69
2023/01/08 07:16:51;;;;;;;11.27;4.53;;;;;;;;;;5173005;27;20041;-68
2023/01/08 07:19:16;;;;;;;13.55;4.50;;;;;;;;;;5169542;27;20097;-66
2023/01/08 07:21:41;;;;;;;11.27;4.57;;;;;;;;;;5154673;27;20485;-69
2023/01/08 07:24:07;;;;;;;13.20;4.55;;;;;;;;;;5154475;27;20026;-68
2023/01/08 07:26:33;;;;;;;15.82;4.20;;;;;;;;;;5154292;27;20019;-68
2023/01/08 07:28:58;;;;;;;14.48;4.63;;;;;;;;;;5153967;27;20159;-71
2023/01/08 07:31:24;;;;;;;13.65;5.07;;;;;;;;;;5153988;27;20034;-67
2023/01/08 07:33:49;;;;;;;11.55;4.43;;;;;;;;;;5153981;27;20026;-68
2023/01/08 07:36:15;;;;;;;14.13;4.57;;;;;;;;;;5153878;27;20015;-66
2023/01/08 07:38:44;;;;;;;18.05;4.95;;;;;;;;;;5154066;27;20035;-67
2023/01/08 07:41:09;;;;;;;15.90;4.70;;;;;;;;;;5154155;27;20058;-66
2023/01/08 07:43:34;;;;;;;14.68;4.60;;;;;;;;;;5155331;27;20442;-68
2023/01/08 07:46:03;;;;;;;17.27;4.50;;;;;;;;;;5166669;27;20043;-67
2023/01/08 07:48:29;;;;;;;16.98;4.68;;;;;;;;;;5169482;27;20106;-68
2023/01/08 07:51:02;;;;;;;15.13;4.68;;;;;;;;;;5154843;27;20061;-68
2023/01/08 07:53:27;;;;;;;16.88;4.93;;;;;;;;;;5153869;27;20087;-67
2023/01/08 07:56:07;;;;;;;15.30;4.90;;;;;;;;;;5153664;27;20026;-68
2023/01/08 07:58:33;;;;;;;17.00;4.90;;;;;;;;;;5152825;27;20038;-67
2023/01/08 08:00:59;;;;;;;15.52;5.20;;;;;;;;;;5153457;27;20490;-67
2023/01/08 08:03:24;;;;;;;14.02;4.60;;;;;;;;;;5153320;27;20039;-67
2023/01/08 08:05:50;;;;;;;10.60;4.47;;;;;;;;;;5153016;27;20023;-66
2023/01/08 08:08:16;;;;;;;14.15;4.50;;;;;;;;;;5153264;27;20106;-66
2023/01/08 08:10:42;;;;;;;15.15;4.90;;;;;;;;;;5153206;27;20151;-68
2023/01/08 08:13:09;;;;;;;12.98;4.75;;;;;;;;;;5153268;27;20112;-67
2023/01/08 08:15:35;;;;;;;14.90;4.70;;;;;;;;;;5153099;27;20087;-68
2023/01/08 08:18:00;;;;;;;12.98;4.68;;;;;;;;;;5153155;27;20037;-68
2023/01/08 08:20:26;;;;;;;17.13;4.68;;;;;;;;;;5153084;27;20023;-68
2023/01/08 08:22:52;;;;;;;13.32;5.30;;;;;;;;;;5153038;27;20037;-66
2023/01/08 08:25:17;;;;;;;14.00;4.90;;;;;;;;;;5152820;27;20071;-67
2023/01/08 08:27:44;;;;;;;17.73;4.97;;;;;;;;;;5152791;27;20027;-67
2023/01/08 08:30:10;;;;;;;14.00;4.82;;;;;;;;;;5152697;27;20033;-67
2023/01/08 08:32:36;;;;;;;10.82;4.75;;;;;;;;;;5152928;27;20027;-67
2023/01/08 08:35:02;;;;;;;17.48;5.30;;;;;;;;;;5152822;27;20030;-70
2023/01/08 08:37:28;;;;;;;13.88;4.50;;;;;;;;;;5152560;27;20041;-67
2023/01/08 08:39:53;;;;;;;14.25;5.25;;;;;;;;;;5152942;27;20105;-67
2023/01/08 08:42:19;;;;;;;14.43;5.03;;;;;;;;;;5152536;27;20026;-66
2023/01/08 08:44:44;;;;;;;11.40;4.97;;;;;;;;;;5152435;27;20116;-69
2023/01/08 08:47:10;;;;;;;15.55;5.05;;;;;;;;;;5152292;27;20022;-68
2023/01/08 08:49:35;;;;;;;11.38;4.65;;;;;;;;;;5152373;27;20031;-67
2023/01/08 08:52:01;;;;;;;11.95;5.00;;;;;;;;;;5152450;27;20493;-70
2023/01/08 08:54:27;;;;;;;10.02;4.72;;;;;;;;;;5152531;27;20099;-69
2023/01/08 08:56:52;;;;;;;12.85;4.88;;;;;;;;;;5152185;27;20244;-67
2023/01/08 08:59:17;;;;;;;9.90;4.85;;;;;;;;;;5151022;27;20034;-68
2023/01/08 09:01:43;;;;;;;10.98;5.03;;;;;;;;;;5152186;27;20027;-69
2023/01/08 09:04:08;;;;;;;10.13;5.18;;;;;;;;;;5152093;27;20029;-67
2023/01/08 09:06:33;;;;;;;9.48;5.05;;;;;;;;;;5151875;27;20023;-68
2023/01/08 09:08:59;;;;;;;9.43;4.78;;;;;;;;;;5152158;27;20041;-69
2023/01/08 09:11:24;;;;;;;11.88;5.28;;;;;;;;;;5152097;27;20110;-68
2023/01/08 09:13:50;;;;;;;12.50;5.30;;;;;;;;;;5152179;27;20023;-68
2023/01/08 09:16:15;;;;;;;8.60;4.60;;;;;;;;;;5151883;27;20494;-68
2023/01/08 09:18:41;;;;;;;9.93;4.97;;;;;;;;;;5151874;27;20031;-67
2023/01/08 09:21:07;;;;;;;9.30;4.97;;;;;;;;;;5152096;27;20027;-67
2023/01/08 09:23:33;;;;;;;8.05;4.45;;;;;;;;;;5152072;27;20026;-67
2023/01/08 09:26:04;;;;;;;12.43;4.78;;;;;;;;;;5151660;27;20031;-68
2023/01/08 09:28:30;;;;;;;7.03;4.35;;;;;;;;;;5150711;27;20030;-68
2023/01/08 09:30:55;;;;;;;7.53;4.30;;;;;;;;;;5152118;27;20027;-67
2023/01/08 09:33:21;;;;;;;9.70;4.28;;;;;;;;;;5151721;27;20019;-69
2023/01/08 09:35:46;;;;;;;10.35;3.97;;;;;;;;;;5151966;27;20022;-71
2023/01/08 09:38:12;;;;;;;9.27;4.40;;;;;;;;;;5151965;27;20079;-67
2023/01/08 09:40:42;;;;;;;7.65;4.60;;;;;;;;;;5150690;27;20025;-68
2023/01/08 09:43:13;;;;;;;;;;;;;;;;;;5152443;27;20022;-70
2023/01/08 09:45:39;;;;;;;7.47;4.28;;;;;;;;;;5151478;27;19959;-68
2023/01/08 09:48:10;;;;;;;7.72;4.05;;;;;;;;;;5151787;27;20030;-68
2023/01/08 09:50:36;;;;;;;;;;;;;;;;;;5152380;27;20097;-67
2023/01/08 09:53:01;;;;;;;8.73;3.95;;;;;;;;;;5152111;27;19918;-68
2023/01/08 09:55:31;;;;;;;8.73;4.07;;;;;;;;;;5151815;27;20019;-68
2023/01/08 09:57:58;;;;;;;8.13;3.90;;;;;;;;;;5151428;27;20022;-68
2023/01/08 10:00:27;;;;;;;7.38;4.03;;;;;;;;;;5151959;27;20046;-67
2023/01/08 10:02:53;;;;;;;6.60;3.97;;;;;;;;;;5151836;27;20470;-71
2023/01/08 10:05:19;;;;;;;7.78;4.30;;;;;;;;;;5151584;27;20209;-71
2023/01/08 10:07:45;;;;;;;6.97;3.95;;;;;;;;;;5151741;27;20709;-71
2023/01/08 10:10:24;;;;;;;7.10;3.88;;;;;;;;;;5151683;27;20026;-68
2023/01/08 10:12:50;;;;;;;7.85;4.00;;;;;;;;;;5151785;27;20034;-70
2023/01/08 10:15:19;;;;;;;11.23;4.00;;;;;;;;;;5151738;27;20015;-72
2023/01/08 10:17:56;;;;;;;7.63;4.22;;;;;;;;;;5151379;27;20027;-68
2023/01/08 10:20:24;;;;;;;12.15;4.38;;;;;;;;;;5151416;27;20388;-68
2023/01/08 10:22:55;;;;;;;8.15;4.43;;;;;;;;;;5154656;27;20089;-68
2023/01/08 10:25:22;;;;;;;;;;;;;;;;;;5155435;27;20018;-68
2023/01/08 10:28:12;;;;;;;13.98;5.03;;;;;;;;;;5155280;27;19914;-67
2023/01/08 10:30:38;;;;;;;13.10;4.88;;;;;;;;;;5153312;27;20023;-67
2023/01/08 10:33:28;;;;;;;9.88;4.50;;;;;;;;;;5155339;27;20030;-70
2023/01/08 10:36:03;;;;;;;10.70;4.88;;;;;;;;;;5153822;27;20022;-68
2023/01/08 10:38:34;;;;;;;10.20;5.20;;;;;;;;;;5154937;27;20038;-68
2023/01/08 10:41:08;;;;;;;13.10;4.90;;;;;;;;;;5159521;27;20464;-67
2023/01/08 10:43:55;;;;;;;12.27;5.13;;;;;;;;;;5155575;27;20065;-66
2023/01/08 10:46:27;;;;;;;11.57;4.63;;;;;;;;;;5154212;27;20042;-67
2023/01/08 10:48:56;;;;;;;11.02;4.32;;;;;;;;;;5153499;27;20019;-67
2023/01/08 10:51:24;;;;;;;9.32;4.22;;;;;;;;;;5154814;27;20091;-67
2023/01/08 10:53:55;;;;;;;10.32;4.57;;;;;;;;;;5154980;27;20026;-67
2023/01/08 10:56:29;;;;;;;10.13;4.53;;;;;;;;;;5152680;27;20031;-67
2023/01/08 10:58:55;;;;;;;14.07;4.68;;;;;;;;;;5154455;27;20026;-67
2023/01/08 11:01:26;;;;;;;12.90;4.18;;;;;;;;;;5156466;27;20027;-68
2023/01/08 11:04:00;;;;;;;16.38;5.22;;;;;;;;;;5159285;27;20015;-68
2023/01/08 11:06:34;;;;;;;12.65;4.55;;;;;;;;;;5158603;27;20023;-67
2023/01/08 11:09:03;;;;;;;10.48;4.38;;;;;;;;;;5166343;27;20023;-69
2023/01/08 11:11:34;;;;;;;10.57;4.47;;;;;;;;;;5169741;27;20023;-67
2023/01/08 11:14:03;;;;;;;10.48;4.43;;;;;;;;;;5159816;27;20110;-69
2023/01/08 11:16:39;;;;;;;12.55;4.40;;;;;;;;;;5154328;27;20068;-68
2023/01/08 11:19:15;;;;;;;13.80;4.60;;;;;;;;;;5154377;27;20034;-69
2023/01/08 11:21:41;;;;;;;12.90;5.47;;;;;;;;;;5152800;27;20102;-68
2023/01/08 11:24:21;;;;;;;10.00;4.90;;;;;;;;;;5154334;27;20261;-67
2023/01/08 11:26:51;;;;;;;9.63;5.18;;;;;;;;;;5153994;27;20611;-69
2023/01/08 11:29:30;;;;;;;13.05;5.13;;;;;;;;;;5154203;27;20602;-67
2023/01/08 11:32:07;;;;;;;12.73;4.68;;;;;;;;;;5154214;27;20386;-69
2023/01/08 11:35:17;;;;;;;8.27;4.63;;;;;;;;;;5153156;27;20430;-67
2023/01/08 11:37:50;;;;;;;11.68;4.63;;;;;;;;;;5089293;28;20034;-68
2023/01/08 11:40:31;;;;;;;15.10;4.55;;;;;;;;;;5147632;27;20038;-68
2023/01/08 11:43:15;;;;;;;11.23;4.43;;;;;;;;;;5152365;27;20018;-68
2023/01/08 11:45:43;;;;;;;11.73;4.10;;;;;;;;;;5153659;27;20039;-69
2023/01/08 11:48:18;;;;;;;12.77;4.40;;;;;;;;;;5153202;27;20050;-68
2023/01/08 11:51:02;;;;;;;13.10;5.47;;;;;;;;;;5153739;27;20027;-68
2023/01/08 11:53:35;;;;;;;15.90;4.57;;;;;;;;;;5153617;27;20058;-67
2023/01/08 11:56:30;;;;;;;19.67;4.35;;;;;;;;;;5153581;27;20023;-67
2023/01/08 11:59:07;;;;;;;13.18;4.35;;;;;;;;;;5149795;27;20050;-69
2023/01/08 12:01:36;;;;;;;12.95;4.10;;;;;;;;;;5153513;27;20079;-67
2023/01/08 12:04:20;;;;;;;13.25;4.90;;;;;;;;;;5153316;27;20062;-67
2023/01/08 12:07:02;;;;;;;11.05;4.13;;;;;;;;;;5153313;27;20038;-67
2023/01/08 12:09:34;;;;;;;10.48;4.10;;;;;;;;;;5152989;27;20502;-67
2023/01/08 12:12:18;;;;;;;15.55;4.63;;;;;;;;;;5153378;27;20707;-67
2023/01/08 12:14:55;;;;;;;15.95;4.47;;;;;;;;;;5152907;27;20494;-67
2023/01/08 12:17:48;;;;;;;10.48;4.18;;;;;;;;;;5152600;27;20038;-67
2023/01/08 12:20:51;;;;;;;12.07;4.28;;;;;;;;;;5152809;27;20026;-67
2023/01/08 12:23:22;;;;;;;8.27;3.88;;;;;;;;;;5144126;27;20023;-68
2023/01/08 12:25:53;;;;;;;13.52;4.35;;;;;;;;;;5152806;27;20029;-66
2023/01/08 12:28:37;;;;;;;13.05;4.13;;;;;;;;;;5152715;27;20530;-67
2023/01/08 12:31:14;;;;;;;9.98;4.30;;;;;;;;;;5152964;27;20098;-67
2023/01/08 12:33:53;;;;;;;10.27;3.70;;;;;;;;;;5152576;27;20147;-67
2023/01/08 12:36:41;;;;;;;8.52;4.03;;;;;;;;;;5152585;27;20030;-67
2023/01/08 12:39:19;;;;;;;12.52;4.18;;;;;;;;;;5152275;27;20159;-67
2023/01/08 12:41:46;;;;;;;10.13;4.10;;;;;;;;;;5152846;27;20027;-67
2023/01/08 12:44:22;;;;;;;10.57;3.67;;;;;;;;;;5152063;27;20026;-67
2023/01/08 12:46:49;;;;;;;10.85;4.28;;;;;;;;;;5152705;27;20076;-67
2023/01/08 12:49:25;;;;;;;10.10;3.60;;;;;;;;;;5152178;27;20042;-67
2023/01/08 12:52:10;;;;;;;14.65;3.78;;;;;;;;;;5152375;27;20026;-68
2023/01/08 12:54:45;;;;;;;14.63;3.92;;;;;;;;;;5152327;27;20390;-66
2023/01/08 12:57:24;;;;;;;13.32;3.60;;;;;;;;;;5151980;27;20115;-67
2023/01/08 12:59:58;;;;;;;13.95;4.03;;;;;;;;;;5152398;27;20027;-67
2023/01/08 13:02:51;;;;;;;9.85;3.30;;;;;;;;;;5152257;27;20022;-67
2023/01/08 13:05:17;;;;;;;13.80;4.20;;;;;;;;;;5152495;27;20100;-67
2023/01/08 13:08:25;;;;;;;15.52;4.10;;;;;;;;;;5152147;27;20645;-68
2023/01/08 13:10:53;;;;;;;10.63;3.70;;;;;;;;;;5152273;27;20446;-67
2023/01/08 13:13:39;;;;;;;7.70;3.30;;;;;;;;;;5152099;27;20424;-67
2023/01/08 13:16:18;;;;;;;10.43;3.55;;;;;;;;;;5152106;27;20030;-67
2023/01/08 13:18:59;;;;;;;15.52;3.97;;;;;;;;;;5155697;27;20026;-68
2023/01/08 13:21:36;;;;;;;13.05;3.55;;;;;;;;;;5154868;27;20029;-70
2023/01/08 13:24:21;;;;;;;10.88;3.65;;;;;;;;;;5154941;27;20031;-68
2023/01/08 13:26:46;;;;;;;13.88;4.00;;;;;;;;;;5152165;27;20106;-67
2023/01/08 13:29:37;;;;;;;11.23;3.88;;;;;;;;;;5152012;27;20106;-67
2023/01/08 13:32:03;;;;;;;10.75;3.17;;;;;;;;;;5152050;27;20031;-66
2023/01/08 13:34:39;;;;;;;13.73;4.30;;;;;;;;;;5151852;27;20055;-66
2023/01/08 13:37:05;;;;;;;11.15;4.43;;;;;;;;;;5151762;27;20093;-67
2023/01/08 13:39:37;;;;;;;15.30;3.88;;;;;;;;;;5151583;27;20019;-67
2023/01/08 13:42:20;;;;;;;10.70;3.65;;;;;;;;;;5151982;27;20696;-69
2023/01/08 13:44:51;;;;;;;15.25;4.20;;;;;;;;;;5151667;27;20047;-68
2023/01/08 13:47:41;;;;;;;18.10;3.75;;;;;;;;;;5151703;27;20106;-72
2023/01/08 13:50:23;;;;;;;10.25;3.80;;;;;;;;;;5151700;27;20027;-69
2023/01/08 13:52:58;;;;;;;10.52;4.40;;;;;;;;;;5151777;27;20693;-67
2023/01/08 13:55:36;;;;;;;11.80;4.03;;;;;;;;;;5151672;27;20031;-67
2023/01/08 13:58:26;;;;;;;14.35;4.38;;;;;;;;;;5154887;27;20106;-68
2023/01/08 14:00:54;;;;;;;13.85;5.97;;;;;;;;;;5146580;27;20035;-68
2023/01/08 14:03:34;;;;;;;17.75;7.03;;;;;;;;;;5155564;27;20060;-68
2023/01/08 14:06:18;;;;;;;12.70;5.67;;;;;;;;;;5155819;27;20018;-67
2023/01/08 14:09:03;;;;;;;11.93;3.92;;;;;;;;;;5155510;27;20271;-67
2023/01/08 14:11:34;;;;;;;12.57;4.80;;;;;;;;;;5155513;27;20109;-67
2023/01/08 14:14:00;;;;;;;16.38;5.35;;;;;;;;;;5154009;27;20034;-67
2023/01/08 14:16:25;;;;;;;28.33;10.95;;;;;;;;;;5155443;27;20026;-67
2023/01/08 14:18:54;;;;;;;29.00;13.50;;;;;;;;;;5155077;27;20037;-68
2023/01/08 14:21:21;;;;;;;21.23;8.35;;;;;;;;;;5155492;27;20444;-68
2023/01/08 14:23:49;;;;;;;14.43;6.40;;;;;;;;;;5155626;27;20037;-67
2023/01/08 14:26:49;;;;;;;16.73;6.88;;;;;;;;;;5155397;27;20506;-67
2023/01/08 14:29:18;;;;;;;16.75;7.10;;;;;;;;;;5155053;27;20065;-66
2023/01/08 14:31:51;;;;;;;18.58;6.10;;;;;;;;;;5155370;27;20022;-67
2023/01/08 14:34:19;;;;;;;18.60;7.13;;;;;;;;;;5155100;27;20017;-66
2023/01/08 14:36:45;;;;;;;16.08;5.78;;;;;;;;;;5154802;27;20101;-67
2023/01/08 14:39:20;;;;;;;15.18;5.65;;;;;;;;;;5154751;27;20026;-66
2023/01/08 14:44:30;;;;;;;12.68;4.30;;;;;;;;;;5155089;27;20065;-68
2023/01/08 14:46:55;;;;;;;14.57;5.50;;;;;;;;;;5155049;27;20545;-69
2023/01/08 14:49:28;;;;;;;13.52;4.70;;;;;;;;;;5154886;27;20022;-67
2023/01/08 14:51:56;;;;;;;12.20;4.05;;;;;;;;;;5154938;27;20431;-68
2023/01/08 14:54:30;;;;;;;16.70;4.60;;;;;;;;;;5155036;27;20525;-68